createdAt,value
2023-03-06T00:00:45.490Z,-0.08
2023-03-06T00:03:47.054Z,-0.14
2023-03-06T00:06:48.594Z,-0.14
2023-03-06T00:09:49.990Z,-0.12
2023-03-06T00:12:53.064Z,-0.09
2023-03-06T00:15:54.514Z,-0.05
2023-03-06T00:18:55.931Z,0.01
2023-03-06T00:21:57.351Z,0.06
2023-03-06T00:24:58.786Z,0.01
2023-03-06T00:28:00.145Z,0.02
2023-03-06T00:31:02.547Z,-0.02
2023-03-06T00:34:04.228Z,-0.03
2023-03-06T00:37:05.614Z,-0.04
2023-03-06T00:40:10.325Z,-0.07
2023-03-06T00:43:12.920Z,-0.05
2023-03-06T00:46:14.292Z,-0.07
2023-03-06T00:49:15.687Z,-0.05
2023-03-06T00:52:17.178Z,-0.05
2023-03-06T00:55:18.584Z,-0.02
2023-03-06T00:58:20.575Z,-0.06
2023-03-06T01:01:21.996Z,-0.10
2023-03-06T01:04:25.232Z,-0.09
2023-03-06T01:07:26.691Z,-0.11
2023-03-06T01:10:28.648Z,-0.06
2023-03-06T01:13:30.050Z,-0.06
2023-03-06T01:16:31.538Z,-0.07
2023-03-06T01:19:33.105Z,-0.05
2023-03-06T01:22:34.497Z,-0.08
2023-03-06T01:25:35.886Z,-0.09
2023-03-06T01:28:37.635Z,-0.06
2023-03-06T01:31:39.205Z,-0.10
2023-03-06T01:34:40.656Z,-0.09
2023-03-06T01:37:42.141Z,-0.04
2023-03-06T01:40:43.567Z,-0.03
2023-03-06T01:43:46.527Z,-0.02
2023-03-06T01:46:48.068Z,0.01
2023-03-06T01:49:49.583Z,0.02
2023-03-06T01:52:53.928Z,0.01
2023-03-06T01:55:56.572Z,0.00
2023-03-06T01:58:58.532Z,0.01
2023-03-06T02:02:02.378Z,0.01
2023-03-06T02:05:07.013Z,0.06
2023-03-06T02:08:11.469Z,0.02
2023-03-06T02:11:18.032Z,0.02
2023-03-06T02:14:19.509Z,0.01
2023-03-06T02:17:22.280Z,-0.05
2023-03-06T02:20:51.456Z,-0.13
2023-03-06T02:24:27.107Z,-0.31
2023-03-06T02:27:29.212Z,-0.26
2023-03-06T02:30:31.744Z,-0.28
2023-03-06T02:33:34.420Z,-0.49
2023-03-06T02:36:40.821Z,-0.39
2023-03-06T02:39:48.694Z,-0.38
2023-03-06T02:42:56.385Z,-0.41
2023-03-06T02:45:57.990Z,-0.45
2023-03-06T02:48:59.395Z,-0.45
2023-03-06T02:52:00.885Z,-0.48
2023-03-06T02:55:02.952Z,-0.51
2023-03-06T02:58:04.852Z,-0.55
2023-03-06T03:01:07.649Z,-0.58
2023-03-06T03:04:10.037Z,-0.59
2023-03-06T03:07:12.279Z,-0.62
2023-03-06T03:10:14.327Z,-0.62
2023-03-06T03:13:16.148Z,-0.69
2023-03-06T03:16:17.866Z,-0.69
2023-03-06T03:19:19.320Z,-0.71
2023-03-06T03:22:21.260Z,-0.75
2023-03-06T03:25:24.521Z,-0.78
2023-03-06T03:28:27.856Z,-0.81
2023-03-06T03:31:29.474Z,-0.81
2023-03-06T03:34:31.064Z,-0.83
2023-03-06T03:37:32.789Z,-0.82
2023-03-06T03:40:35.102Z,-0.87
2023-03-06T03:43:37.305Z,-0.88
2023-03-06T03:46:39.027Z,-0.92
2023-03-06T03:49:45.937Z,-0.94
2023-03-06T03:52:47.419Z,-0.95
2023-03-06T03:55:49.181Z,-0.95
2023-03-06T03:58:53.827Z,-0.95
2023-03-06T04:01:56.197Z,-0.99
2023-03-06T04:04:58.709Z,-0.98
2023-03-06T04:08:00.454Z,-0.97
2023-03-06T04:11:02.612Z,-0.97
2023-03-06T04:14:05.929Z,-0.99
2023-03-06T04:17:08.034Z,-1.05
2023-03-06T04:20:10.375Z,-1.07
2023-03-06T04:23:12.365Z,-1.11
2023-03-06T04:26:13.795Z,-1.10
2023-03-06T04:29:15.283Z,-1.10
2023-03-06T04:32:16.771Z,-1.09
2023-03-06T04:35:18.619Z,-1.11
2023-03-06T04:38:29.087Z,-1.15
2023-03-06T04:41:31.079Z,-1.21
2023-03-06T04:44:32.632Z,-1.28
2023-03-06T04:47:34.069Z,-1.32
2023-03-06T04:50:35.473Z,-1.32
2023-03-06T04:53:36.886Z,-1.40
2023-03-06T04:56:38.278Z,-1.45
2023-03-06T04:59:39.706Z,-1.47
2023-03-06T05:02:43.519Z,-1.46
2023-03-06T05:05:44.976Z,-1.49
2023-03-06T05:08:47.064Z,-1.53
2023-03-06T05:11:48.473Z,-1.59
2023-03-06T05:14:49.865Z,-1.62
2023-03-06T05:17:51.265Z,-1.65
2023-03-06T05:20:52.683Z,-1.68
2023-03-06T05:23:54.068Z,-1.74
2023-03-06T05:26:55.471Z,-1.74
2023-03-06T05:29:56.821Z,-1.75
2023-03-06T05:32:59.382Z,-1.73
2023-03-06T05:36:01.243Z,-1.69
2023-03-06T05:39:02.634Z,-1.64
2023-03-06T05:42:04.571Z,-1.60
2023-03-06T05:45:06.556Z,-1.53
2023-03-06T05:48:08.297Z,-1.45
2023-03-06T05:51:09.911Z,-1.35
2023-03-06T05:54:11.276Z,-1.29
2023-03-06T05:57:12.639Z,-1.23
2023-03-06T06:00:15.262Z,-1.20
2023-03-06T06:03:19.659Z,-1.18
2023-03-06T06:06:21.120Z,-1.13
2023-03-06T06:09:23.161Z,-1.08
2023-03-06T06:12:26.262Z,-1.07
2023-03-06T06:15:27.673Z,-1.06
2023-03-06T06:18:29.252Z,-1.01
2023-03-06T06:21:30.636Z,-0.97
2023-03-06T06:24:32.300Z,-0.95
2023-03-06T06:27:33.711Z,-0.93
2023-03-06T06:30:35.263Z,-0.89
2023-03-06T06:33:36.687Z,-0.89
2023-03-06T06:36:38.741Z,-0.82
2023-03-06T06:39:40.271Z,-0.76
2023-03-06T06:42:41.701Z,-0.74
2023-03-06T06:45:43.063Z,-0.67
2023-03-06T06:48:44.477Z,-0.64
2023-03-06T06:51:45.867Z,-0.59
2023-03-06T06:54:47.681Z,-0.54
2023-03-06T06:57:49.080Z,-0.47
2023-03-06T07:00:50.537Z,-0.45
2023-03-06T07:03:51.992Z,-0.41
2023-03-06T07:06:56.144Z,-0.35
2023-03-06T07:09:57.572Z,-0.30
2023-03-06T07:12:58.963Z,-0.21
2023-03-06T07:16:00.766Z,-0.20
2023-03-06T07:19:02.240Z,-0.19
2023-03-06T07:22:03.734Z,0.11
2023-03-06T07:25:06.241Z,1.59
2023-03-06T07:28:07.684Z,2.31
2023-03-06T07:31:10.415Z,2.18
2023-03-06T07:34:14.077Z,2.36
2023-03-06T07:37:15.538Z,2.89
2023-03-06T07:40:18.154Z,2.86
2023-03-06T07:43:19.834Z,2.36
2023-03-06T07:46:30.575Z,2.31
2023-03-06T07:49:32.326Z,2.43
2023-03-06T07:52:34.623Z,2.08
2023-03-06T07:55:39.117Z,1.65
2023-03-06T07:58:43.026Z,1.48
2023-03-06T08:01:44.484Z,1.45
2023-03-06T08:04:52.348Z,1.40
2023-03-06T08:07:53.834Z,1.33
2023-03-06T08:10:55.207Z,1.19
2023-03-06T08:13:57.626Z,1.12
2023-03-06T08:16:59.008Z,1.22
2023-03-06T08:20:00.469Z,1.15
2023-03-06T08:23:01.889Z,1.11
2023-03-06T08:26:12.164Z,1.03
2023-03-06T08:29:13.894Z,0.95
2023-03-06T08:32:15.339Z,0.91
2023-03-06T08:35:16.827Z,1.07
2023-03-06T08:38:18.224Z,1.28
2023-03-06T08:41:20.455Z,1.74
2023-03-06T08:44:21.910Z,2.16
2023-03-06T08:47:23.419Z,2.36
2023-03-06T08:50:24.869Z,2.16
2023-03-06T08:53:41.752Z,1.79
2023-03-06T08:56:44.288Z,1.73
2023-03-06T08:59:45.677Z,2.07
2023-03-06T09:02:47.075Z,1.99
2023-03-06T09:05:49.303Z,2.24
2023-03-06T09:08:52.162Z,2.61
2023-03-06T09:11:53.631Z,2.54
2023-03-06T09:14:55.017Z,2.58
2023-03-06T09:17:56.483Z,2.66
2023-03-06T09:20:57.913Z,2.80
2023-03-06T09:23:59.396Z,2.93
2023-03-06T09:27:01.037Z,2.96
2023-03-06T09:30:03.254Z,3.14
2023-03-06T09:33:04.710Z,3.21
2023-03-06T09:36:07.535Z,3.26
2023-03-06T09:39:08.986Z,3.17
2023-03-06T09:42:17.112Z,3.36
2023-03-06T09:45:18.650Z,3.62
2023-03-06T09:48:26.863Z,3.72
2023-03-06T09:51:53.762Z,3.81
2023-03-06T09:55:04.404Z,4.00
2023-03-06T09:58:15.917Z,4.16
2023-03-06T10:01:24.819Z,4.40
2023-03-06T10:04:42.204Z,4.33
2023-03-06T10:07:52.817Z,4.31
2023-03-06T10:11:00.577Z,4.72
2023-03-06T10:14:30.098Z,4.74
2023-03-06T10:17:36.840Z,4.55
2023-03-06T10:20:49.774Z,4.63
2023-03-06T10:23:55.558Z,4.46
2023-03-06T10:27:14.978Z,4.44
2023-03-06T10:30:44.596Z,4.59
2023-03-06T10:33:53.290Z,4.50
2023-03-06T10:36:54.687Z,4.59
2023-03-06T10:40:08.586Z,4.69
2023-03-06T10:43:12.207Z,4.48
2023-03-06T10:46:25.921Z,4.35
2023-03-06T10:49:31.710Z,4.68
2023-03-06T10:52:35.160Z,5.21
2023-03-06T10:55:36.988Z,4.94
2023-03-06T10:58:38.409Z,5.17
2023-03-06T11:01:42.606Z,5.37
2023-03-06T11:04:51.464Z,5.04
2023-03-06T11:08:00.411Z,5.33
2023-03-06T11:11:36.787Z,5.31
2023-03-06T11:14:39.014Z,5.10
2023-03-06T11:17:52.545Z,5.30
2023-03-06T11:20:55.677Z,5.22
2023-03-06T11:24:18.597Z,5.45
2023-03-06T11:27:31.808Z,5.72
2023-03-06T11:30:42.119Z,5.97
2023-03-06T11:34:02.319Z,6.11
2023-03-06T11:37:11.451Z,6.58
2023-03-06T11:40:36.528Z,6.77
2023-03-06T11:44:00.730Z,7.03
2023-03-06T11:47:18.139Z,6.57
2023-03-06T11:50:48.763Z,6.18
2023-03-06T11:53:50.228Z,5.93
2023-03-06T11:56:54.346Z,5.71
2023-03-06T12:00:31.500Z,5.29
2023-03-06T12:04:10.298Z,5.53
2023-03-06T12:07:30.061Z,5.45
2023-03-06T12:10:38.400Z,5.85
2023-03-06T12:14:02.360Z,6.16
2023-03-06T12:17:31.668Z,6.41
2023-03-06T12:20:58.213Z,6.39
2023-03-06T12:24:11.464Z,6.56
2023-03-06T12:27:38.137Z,6.65
2023-03-06T12:30:46.114Z,6.50
2023-03-06T12:33:50.602Z,6.58
2023-03-06T12:37:01.220Z,6.54
2023-03-06T12:40:49.293Z,6.67
2023-03-06T12:44:28.417Z,6.45
2023-03-06T12:47:33.133Z,6.33
2023-03-06T12:50:35.624Z,6.28
2023-03-06T12:53:37.827Z,6.23
2023-03-06T12:56:40.046Z,6.18
2023-03-06T12:59:49.377Z,6.14
2023-03-06T13:03:06.334Z,6.20
2023-03-06T13:06:45.019Z,5.84
2023-03-06T13:10:21.456Z,5.86
2023-03-06T13:13:31.932Z,5.91
2023-03-06T13:16:34.700Z,5.83
2023-03-06T13:19:36.357Z,6.03
2023-03-06T13:22:37.791Z,6.13
2023-03-06T13:25:47.821Z,6.04
2023-03-06T13:28:52.327Z,5.99
2023-03-06T13:31:53.674Z,6.00
2023-03-06T13:34:55.074Z,5.95
2023-03-06T13:37:57.605Z,5.90
2023-03-06T13:41:20.733Z,5.84
2023-03-06T13:44:25.273Z,5.84
2023-03-06T13:48:01.432Z,5.76
2023-03-06T13:51:15.068Z,5.66
2023-03-06T13:54:44.206Z,5.43
2023-03-06T13:58:17.507Z,5.52
2023-03-06T14:01:49.958Z,5.51
2023-03-06T14:05:02.291Z,5.44
2023-03-06T14:08:13.596Z,5.43
2023-03-06T14:11:20.777Z,5.47
2023-03-06T14:14:35.530Z,5.48
2023-03-06T14:17:37.927Z,5.48
2023-03-06T14:20:43.627Z,5.43
2023-03-06T14:23:45.030Z,5.52
2023-03-06T14:26:50.274Z,5.65
2023-03-06T14:30:05.169Z,5.65
2023-03-06T14:33:10.730Z,5.46
2023-03-06T14:36:15.246Z,5.32
2023-03-06T14:39:41.763Z,5.27
2023-03-06T14:42:43.240Z,5.19
2023-03-06T14:45:55.064Z,5.21
2023-03-06T14:48:58.902Z,5.27
2023-03-06T14:52:01.117Z,5.16
2023-03-06T14:55:03.168Z,5.23
2023-03-06T14:58:15.272Z,5.35
2023-03-06T15:01:34.720Z,5.40
2023-03-06T15:04:45.231Z,5.33
2023-03-06T15:07:46.918Z,5.24
2023-03-06T15:10:58.356Z,5.34
2023-03-06T15:14:04.511Z,5.32
2023-03-06T15:17:17.976Z,5.32
2023-03-06T15:20:53.535Z,5.29
2023-03-06T15:23:57.122Z,5.09
2023-03-06T15:27:02.941Z,5.05
2023-03-06T15:30:21.974Z,5.04
2023-03-06T15:33:26.368Z,5.01
2023-03-06T15:36:30.374Z,4.98
2023-03-06T15:39:34.756Z,4.90
2023-03-06T15:42:36.376Z,4.89
2023-03-06T15:45:37.827Z,4.84
2023-03-06T15:48:39.244Z,4.86
2023-03-06T15:51:40.883Z,4.81
2023-03-06T15:54:42.286Z,4.77
2023-03-06T15:57:53.184Z,4.75
2023-03-06T16:00:54.649Z,4.62
2023-03-06T16:03:56.107Z,4.68
2023-03-06T16:06:57.579Z,4.57
2023-03-06T16:09:58.974Z,4.56
2023-03-06T16:13:06.559Z,4.49
2023-03-06T16:16:17.774Z,4.37
2023-03-06T16:19:26.279Z,4.23
2023-03-06T16:22:28.646Z,4.13
2023-03-06T16:25:30.044Z,4.04
2023-03-06T16:28:32.352Z,3.97
2023-03-06T16:31:33.898Z,3.86
2023-03-06T16:34:35.359Z,3.77
2023-03-06T16:37:36.715Z,3.69
2023-03-06T16:40:38.872Z,3.63
2023-03-06T16:43:40.281Z,3.64
2023-03-06T16:46:43.936Z,3.63
2023-03-06T16:49:45.420Z,3.56
2023-03-06T16:52:46.871Z,3.51
2023-03-06T16:55:48.285Z,3.46
2023-03-06T16:58:49.738Z,3.47
2023-03-06T17:01:51.168Z,3.43
2023-03-06T17:04:52.552Z,3.40
2023-03-06T17:07:54.136Z,3.39
2023-03-06T17:10:55.773Z,3.30
2023-03-06T17:13:57.154Z,3.30
2023-03-06T17:16:58.581Z,3.27
2023-03-06T17:20:00.182Z,3.20
2023-03-06T17:23:01.577Z,3.19
2023-03-06T17:26:11.917Z,3.17
2023-03-06T17:29:13.301Z,3.10
2023-03-06T17:32:14.763Z,3.05
2023-03-06T17:35:16.563Z,3.07
2023-03-06T17:38:17.932Z,3.01
2023-03-06T17:41:19.489Z,3.02
2023-03-06T17:44:20.866Z,2.99
2023-03-06T17:47:22.265Z,2.96
2023-03-06T17:50:23.792Z,2.91
2023-03-06T17:53:25.246Z,2.87
2023-03-06T17:56:27.055Z,2.87
2023-03-06T17:59:28.492Z,2.85
2023-03-06T18:02:29.877Z,2.83
2023-03-06T18:05:31.499Z,2.80
2023-03-06T18:08:32.864Z,2.74
2023-03-06T18:11:34.269Z,2.63
2023-03-06T18:14:35.756Z,2.54
2023-03-06T18:17:37.216Z,2.49
2023-03-06T18:20:41.496Z,2.48
2023-03-06T18:23:43.061Z,2.43
2023-03-06T18:26:44.456Z,2.42
2023-03-06T18:29:45.817Z,2.42
2023-03-06T18:32:47.210Z,2.39
2023-03-06T18:35:48.634Z,2.35
2023-03-06T18:38:50.184Z,2.28
2023-03-06T18:41:51.575Z,2.21
2023-03-06T18:44:52.946Z,2.14
2023-03-06T18:47:54.747Z,2.10
2023-03-06T18:50:56.338Z,2.02
2023-03-06T18:53:59.458Z,1.92
2023-03-06T18:57:00.877Z,1.92
2023-03-06T19:00:02.302Z,1.86
2023-03-06T19:03:03.773Z,1.91
2023-03-06T19:06:07.840Z,1.89
2023-03-06T19:09:09.249Z,1.81
2023-03-06T19:12:10.624Z,1.72
2023-03-06T19:15:12.114Z,1.63
2023-03-06T19:18:15.719Z,1.55
2023-03-06T19:21:22.155Z,1.45
2023-03-06T19:24:23.908Z,1.35
2023-03-06T19:27:25.286Z,1.29
2023-03-06T19:30:26.658Z,1.32
2023-03-06T19:33:28.066Z,1.27
2023-03-06T19:36:32.372Z,1.26
2023-03-06T19:39:34.945Z,1.19
2023-03-06T19:42:36.343Z,1.16
2023-03-06T19:45:42.066Z,1.13
2023-03-06T19:48:43.839Z,1.06
2023-03-06T19:51:45.344Z,1.04
2023-03-06T19:54:46.722Z,1.04
2023-03-06T19:57:48.151Z,1.06
2023-03-06T20:00:49.530Z,1.06
2023-03-06T20:03:54.268Z,1.08
2023-03-06T20:06:55.672Z,1.05
2023-03-06T20:09:57.168Z,1.01
2023-03-06T20:12:58.546Z,1.01
2023-03-06T20:16:03.121Z,1.00
2023-03-06T20:19:05.364Z,0.98
2023-03-06T20:22:07.088Z,0.97
2023-03-06T20:25:08.602Z,0.94
2023-03-06T20:28:10.052Z,0.90
2023-03-06T20:31:17.576Z,0.87
2023-03-06T20:34:19.075Z,0.85
2023-03-06T20:37:20.466Z,0.81
2023-03-06T20:40:21.893Z,0.86
2023-03-06T20:43:23.822Z,0.88
2023-03-06T20:46:25.600Z,0.93
2023-03-06T20:49:27.430Z,0.99
2023-03-06T20:52:28.883Z,1.01
2023-03-06T20:55:30.287Z,1.05
2023-03-06T20:58:32.832Z,1.06
2023-03-06T21:01:40.613Z,1.08
2023-03-06T21:04:44.776Z,1.10
2023-03-06T21:07:46.238Z,1.11
2023-03-06T21:10:47.692Z,1.15
2023-03-06T21:13:49.199Z,1.16
2023-03-06T21:16:50.621Z,1.21
2023-03-06T21:19:51.988Z,1.26
2023-03-06T21:22:53.749Z,1.25
2023-03-06T21:25:55.145Z,1.26
2023-03-06T21:28:57.411Z,1.29
2023-03-06T21:31:58.791Z,1.30
2023-03-06T21:35:00.182Z,1.31
2023-03-06T21:38:01.592Z,1.33
2023-03-06T21:41:08.505Z,1.38
2023-03-06T21:44:10.609Z,1.39
2023-03-06T21:47:12.006Z,1.43
2023-03-06T21:50:13.713Z,1.45
2023-03-06T21:53:15.111Z,1.46
2023-03-06T21:56:19.057Z,1.46
2023-03-06T21:59:20.557Z,1.47
2023-03-06T22:02:22.030Z,1.48
2023-03-06T22:05:24.611Z,1.49
2023-03-06T22:08:25.985Z,1.52
2023-03-06T22:11:29.133Z,1.55
2023-03-06T22:14:30.506Z,1.55
2023-03-06T22:17:32.242Z,1.52
2023-03-06T22:20:33.646Z,1.46
2023-03-06T22:23:35.380Z,1.42
2023-03-06T22:26:36.786Z,1.35
2023-03-06T22:29:38.236Z,1.10
2023-03-06T22:32:39.863Z,1.01
2023-03-06T22:35:41.333Z,0.93
2023-03-06T22:38:44.794Z,0.83
2023-03-06T22:41:46.177Z,0.71
2023-03-06T22:44:47.557Z,0.67
2023-03-06T22:47:48.956Z,0.62
2023-03-06T22:50:50.320Z,0.56
2023-03-06T22:53:52.081Z,0.53
2023-03-06T22:56:53.489Z,0.42
2023-03-06T22:59:54.919Z,0.39
2023-03-06T23:02:56.282Z,0.36
2023-03-06T23:05:58.063Z,0.38
2023-03-06T23:09:09.274Z,0.32
2023-03-06T23:12:29.337Z,0.32
2023-03-06T23:15:49.415Z,0.29
2023-03-06T23:19:09.633Z,0.28
2023-03-06T23:22:29.326Z,0.31
2023-03-06T23:25:49.153Z,0.31
2023-03-06T23:28:50.799Z,0.24
2023-03-06T23:31:52.269Z,0.27
2023-03-06T23:34:53.708Z,0.29
2023-03-06T23:37:55.129Z,0.24
2023-03-06T23:41:01.970Z,0.26
2023-03-06T23:44:03.830Z,0.28
2023-03-06T23:47:05.509Z,0.26
2023-03-06T23:50:07.252Z,0.27
2023-03-06T23:53:08.902Z,0.27
2023-03-06T23:56:10.990Z,0.28
2023-03-06T23:59:12.486Z,0.33
